sensor_id;sensor_type;location;lat;lon;timestamp;P1;durP1;ratioP1;P2;durP2;ratioP2
1935;SDS011;969;49.892;10.896;2023-08-12T00:01:38;4.80;;;4.40;;
1935;SDS011;969;49.892;10.896;2023-08-12T00:04:04;4.30;;;4.00;;
1935;SDS011;969;49.892;10.896;2023-08-12T00:06:30;6.27;;;4.70;;
1935;SDS011;969;49.892;10.896;2023-08-12T00:08:56;7.47;;;4.37;;
1935;SDS011;969;49.892;10.896;2023-08-12T00:11:21;4.63;;;4.07;;
1935;SDS011;969;49.892;10.896;2023-08-12T00:13:47;4.23;;;3.93;;
1935;SDS011;969;49.892;10.896;2023-08-12T00:16:12;4.60;;;4.20;;
1935;SDS011;969;49.892;10.896;2023-08-12T00:18:38;6.10;;;4.33;;
1935;SDS011;969;49.892;10.896;2023-08-12T00:21:07;5.37;;;4.77;;
1935;SDS011;969;49.892;10.896;2023-08-12T00:23:37;5.13;;;4.20;;
1935;SDS011;969;49.892;10.896;2023-08-12T00:26:05;4.73;;;4.33;;
1935;SDS011;969;49.892;10.896;2023-08-12T00:28:31;4.47;;;4.03;;
1935;SDS011;969;49.892;10.896;2023-08-12T00:30:57;5.97;;;4.50;;
1935;SDS011;969;49.892;10.896;2023-08-12T00:33:22;4.60;;;4.10;;
1935;SDS011;969;49.892;10.896;2023-08-12T00:35:48;4.33;;;3.93;;
1935;SDS011;969;49.892;10.896;2023-08-12T00:38:14;4.83;;;4.27;;
1935;SDS011;969;49.892;10.896;2023-08-12T00:40:39;5.00;;;4.50;;
1935;SDS011;969;49.892;10.896;2023-08-12T00:43:05;4.73;;;4.33;;
1935;SDS011;969;49.892;10.896;2023-08-12T00:45:30;4.40;;;4.00;;
1935;SDS011;969;49.892;10.896;2023-08-12T00:47:56;4.53;;;4.13;;
1935;SDS011;969;49.892;10.896;2023-08-12T00:50:22;4.67;;;4.20;;
1935;SDS011;969;49.892;10.896;2023-08-12T00:52:49;4.90;;;4.43;;
1935;SDS011;969;49.892;10.896;2023-08-12T00:55:15;5.70;;;4.20;;
1935;SDS011;969;49.892;10.896;2023-08-12T00:57:42;5.60;;;4.70;;
1935;SDS011;969;49.892;10.896;2023-08-12T01:00:08;5.00;;;4.60;;
1935;SDS011;969;49.892;10.896;2023-08-12T01:02:34;4.93;;;4.43;;
1935;SDS011;969;49.892;10.896;2023-08-12T01:04:59;6.90;;;4.30;;
1935;SDS011;969;49.892;10.896;2023-08-12T01:07:25;4.67;;;4.27;;
1935;SDS011;969;49.892;10.896;2023-08-12T01:09:51;4.57;;;4.27;;
1935;SDS011;969;49.892;10.896;2023-08-12T01:12:18;3.93;;;3.63;;
1935;SDS011;969;49.892;10.896;2023-08-12T01:14:58;5.50;;;5.10;;
1935;SDS011;969;49.892;10.896;2023-08-12T01:17:31;4.20;;;3.83;;
1935;SDS011;969;49.892;10.896;2023-08-12T01:20:01;4.17;;;3.77;;
1935;SDS011;969;49.892;10.896;2023-08-12T01:22:33;4.30;;;3.93;;
1935;SDS011;969;49.892;10.896;2023-08-12T01:25:04;4.23;;;3.90;;
1935;SDS011;969;49.892;10.896;2023-08-12T01:27:30;5.00;;;3.77;;
1935;SDS011;969;49.892;10.896;2023-08-12T01:29:55;4.17;;;3.77;;
1935;SDS011;969;49.892;10.896;2023-08-12T01:35:06;6.43;;;4.30;;
1935;SDS011;969;49.892;10.896;2023-08-12T01:37:39;4.30;;;3.90;;
1935;SDS011;969;49.892;10.896;2023-08-12T01:40:06;4.20;;;3.80;;
1935;SDS011;969;49.892;10.896;2023-08-12T01:42:34;3.70;;;3.40;;
1935;SDS011;969;49.892;10.896;2023-08-12T01:45:01;4.37;;;4.00;;
1935;SDS011;969;49.892;10.896;2023-08-12T01:47:27;4.53;;;4.13;;
1935;SDS011;969;49.892;10.896;2023-08-12T01:49:53;4.30;;;3.90;;
1935;SDS011;969;49.892;10.896;2023-08-12T01:52:20;4.93;;;4.43;;
1935;SDS011;969;49.892;10.896;2023-08-12T01:54:46;4.53;;;4.10;;
1935;SDS011;969;49.892;10.896;2023-08-12T01:57:11;5.50;;;4.77;;
1935;SDS011;969;49.892;10.896;2023-08-12T01:59:37;4.70;;;4.20;;
1935;SDS011;969;49.892;10.896;2023-08-12T02:02:03;4.30;;;3.90;;
1935;SDS011;969;49.892;10.896;2023-08-12T02:04:29;4.33;;;4.00;;
1935;SDS011;969;49.892;10.896;2023-08-12T02:06:55;4.70;;;4.30;;
1935;SDS011;969;49.892;10.896;2023-08-12T02:09:21;4.90;;;4.40;;
1935;SDS011;969;49.892;10.896;2023-08-12T02:11:47;4.90;;;4.50;;
1935;SDS011;969;49.892;10.896;2023-08-12T02:14:13;4.37;;;3.90;;
1935;SDS011;969;49.892;10.896;2023-08-12T02:16:39;5.10;;;4.70;;
1935;SDS011;969;49.892;10.896;2023-08-12T02:19:04;4.77;;;4.37;;
1935;SDS011;969;49.892;10.896;2023-08-12T02:21:30;9.80;;;5.20;;
1935;SDS011;969;49.892;10.896;2023-08-12T02:23:56;5.03;;;4.63;;
1935;SDS011;969;49.892;10.896;2023-08-12T02:26:21;4.47;;;4.17;;
1935;SDS011;969;49.892;10.896;2023-08-12T02:28:47;5.63;;;4.57;;
1935;SDS011;969;49.892;10.896;2023-08-12T02:31:15;4.00;;;3.70;;
1935;SDS011;969;49.892;10.896;2023-08-12T02:33:41;5.13;;;4.30;;
1935;SDS011;969;49.892;10.896;2023-08-12T02:36:06;4.93;;;4.53;;
1935;SDS011;969;49.892;10.896;2023-08-12T02:38:32;4.83;;;4.43;;
1935;SDS011;969;49.892;10.896;2023-08-12T02:40:58;4.63;;;4.23;;
1935;SDS011;969;49.892;10.896;2023-08-12T02:43:23;4.80;;;4.30;;
1935;SDS011;969;49.892;10.896;2023-08-12T02:45:49;5.43;;;4.10;;
1935;SDS011;969;49.892;10.896;2023-08-12T02:48:14;5.27;;;4.70;;
1935;SDS011;969;49.892;10.896;2023-08-12T02:50:40;6.40;;;4.53;;
1935;SDS011;969;49.892;10.896;2023-08-12T02:53:06;5.47;;;4.97;;
1935;SDS011;969;49.892;10.896;2023-08-12T02:55:32;5.20;;;4.70;;
1935;SDS011;969;49.892;10.896;2023-08-12T02:58:00;4.73;;;4.33;;
1935;SDS011;969;49.892;10.896;2023-08-12T03:00:26;6.20;;;4.37;;
1935;SDS011;969;49.892;10.896;2023-08-12T03:02:52;5.03;;;4.63;;
1935;SDS011;969;49.892;10.896;2023-08-12T03:05:18;5.30;;;4.80;;
1935;SDS011;969;49.892;10.896;2023-08-12T03:07:44;5.13;;;4.73;;
1935;SDS011;969;49.892;10.896;2023-08-12T03:10:10;5.33;;;4.83;;
1935;SDS011;969;49.892;10.896;2023-08-12T03:12:36;7.80;;;4.90;;
1935;SDS011;969;49.892;10.896;2023-08-12T03:15:02;5.70;;;4.30;;
1935;SDS011;969;49.892;10.896;2023-08-12T03:17:28;5.00;;;4.20;;
1935;SDS011;969;49.892;10.896;2023-08-12T03:19:54;5.00;;;4.60;;
1935;SDS011;969;49.892;10.896;2023-08-12T03:22:20;8.97;;;4.43;;
1935;SDS011;969;49.892;10.896;2023-08-12T03:24:45;5.27;;;4.77;;
1935;SDS011;969;49.892;10.896;2023-08-12T03:27:11;4.90;;;4.43;;
1935;SDS011;969;49.892;10.896;2023-08-12T03:29:37;6.63;;;4.90;;
1935;SDS011;969;49.892;10.896;2023-08-12T03:32:02;5.00;;;4.40;;
1935;SDS011;969;49.892;10.896;2023-08-12T03:34:28;5.33;;;4.47;;
1935;SDS011;969;49.892;10.896;2023-08-12T03:36:56;6.00;;;5.40;;
1935;SDS011;969;49.892;10.896;2023-08-12T03:39:22;5.17;;;4.60;;
1935;SDS011;969;49.892;10.896;2023-08-12T03:41:48;5.13;;;4.70;;
1935;SDS011;969;49.892;10.896;2023-08-12T03:44:15;4.47;;;3.90;;
1935;SDS011;969;49.892;10.896;2023-08-12T03:46:41;4.57;;;4.17;;
1935;SDS011;969;49.892;10.896;2023-08-12T03:49:06;4.50;;;4.10;;
1935;SDS011;969;49.892;10.896;2023-08-12T03:51:32;5.77;;;4.33;;
1935;SDS011;969;49.892;10.896;2023-08-12T03:53:58;5.93;;;4.50;;
1935;SDS011;969;49.892;10.896;2023-08-12T03:56:24;4.07;;;3.77;;
1935;SDS011;969;49.892;10.896;2023-08-12T03:58:51;4.03;;;3.73;;
1935;SDS011;969;49.892;10.896;2023-08-12T04:01:16;4.57;;;4.17;;
1935;SDS011;969;49.892;10.896;2023-08-12T04:03:42;4.80;;;4.40;;
1935;SDS011;969;49.892;10.896;2023-08-12T04:06:07;4.50;;;4.10;;
1935;SDS011;969;49.892;10.896;2023-08-12T04:08:33;5.47;;;4.43;;
1935;SDS011;969;49.892;10.896;2023-08-12T04:10:59;4.80;;;4.40;;
1935;SDS011;969;49.892;10.896;2023-08-12T04:13:25;4.23;;;3.87;;
1935;SDS011;969;49.892;10.896;2023-08-12T04:15:51;4.20;;;3.90;;
1935;SDS011;969;49.892;10.896;2023-08-12T04:18:18;6.13;;;4.20;;
1935;SDS011;969;49.892;10.896;2023-08-12T04:20:50;6.47;;;4.40;;
1935;SDS011;969;49.892;10.896;2023-08-12T04:23:17;4.30;;;3.90;;
1935;SDS011;969;49.892;10.896;2023-08-12T04:25:43;5.33;;;3.90;;
1935;SDS011;969;49.892;10.896;2023-08-12T04:28:10;4.30;;;3.87;;
1935;SDS011;969;49.892;10.896;2023-08-12T04:30:40;6.60;;;3.90;;
1935;SDS011;969;49.892;10.896;2023-08-12T04:33:08;4.97;;;4.57;;
1935;SDS011;969;49.892;10.896;2023-08-12T04:35:34;4.17;;;3.87;;
1935;SDS011;969;49.892;10.896;2023-08-12T04:37:59;4.63;;;4.23;;
1935;SDS011;969;49.892;10.896;2023-08-12T04:40:25;5.30;;;4.90;;
1935;SDS011;969;49.892;10.896;2023-08-12T04:42:50;4.67;;;4.17;;
1935;SDS011;969;49.892;10.896;2023-08-12T04:45:16;4.97;;;4.57;;
1935;SDS011;969;49.892;10.896;2023-08-12T04:47:42;4.43;;;4.03;;
1935;SDS011;969;49.892;10.896;2023-08-12T04:50:07;4.07;;;3.77;;
1935;SDS011;969;49.892;10.896;2023-08-12T04:52:33;5.40;;;4.50;;
1935;SDS011;969;49.892;10.896;2023-08-12T04:54:59;5.93;;;4.30;;
1935;SDS011;969;49.892;10.896;2023-08-12T04:57:25;5.97;;;4.00;;
1935;SDS011;969;49.892;10.896;2023-08-12T04:59:50;4.60;;;4.20;;
1935;SDS011;969;49.892;10.896;2023-08-12T05:02:16;5.93;;;4.80;;
1935;SDS011;969;49.892;10.896;2023-08-12T05:04:46;5.43;;;4.93;;
1935;SDS011;969;49.892;10.896;2023-08-12T05:07:15;6.60;;;4.33;;
1935;SDS011;969;49.892;10.896;2023-08-12T05:09:41;5.07;;;4.57;;
1935;SDS011;969;49.892;10.896;2023-08-12T05:12:10;5.00;;;4.50;;
1935;SDS011;969;49.892;10.896;2023-08-12T05:14:37;5.73;;;5.00;;
1935;SDS011;969;49.892;10.896;2023-08-12T05:17:05;5.23;;;4.40;;
1935;SDS011;969;49.892;10.896;2023-08-12T05:19:31;6.30;;;4.70;;
1935;SDS011;969;49.892;10.896;2023-08-12T05:21:57;5.53;;;4.40;;
1935;SDS011;969;49.892;10.896;2023-08-12T05:24:22;4.63;;;4.20;;
1935;SDS011;969;49.892;10.896;2023-08-12T05:26:48;4.93;;;4.50;;
1935;SDS011;969;49.892;10.896;2023-08-12T05:29:14;5.50;;;4.53;;
1935;SDS011;969;49.892;10.896;2023-08-12T05:31:39;7.87;;;4.83;;
1935;SDS011;969;49.892;10.896;2023-08-12T05:34:05;5.43;;;4.77;;
1935;SDS011;969;49.892;10.896;2023-08-12T05:36:30;5.10;;;4.60;;
1935;SDS011;969;49.892;10.896;2023-08-12T05:38:56;4.53;;;4.13;;
1935;SDS011;969;49.892;10.896;2023-08-12T05:41:22;5.43;;;5.00;;
1935;SDS011;969;49.892;10.896;2023-08-12T05:43:48;6.03;;;4.23;;
1935;SDS011;969;49.892;10.896;2023-08-12T05:46:14;6.83;;;4.77;;
1935;SDS011;969;49.892;10.896;2023-08-12T05:48:39;5.30;;;4.80;;
1935;SDS011;969;49.892;10.896;2023-08-12T05:51:05;5.73;;;4.87;;
1935;SDS011;969;49.892;10.896;2023-08-12T05:53:31;6.43;;;4.27;;
1935;SDS011;969;49.892;10.896;2023-08-12T05:55:57;5.70;;;3.60;;
1935;SDS011;969;49.892;10.896;2023-08-12T05:58:23;6.00;;;3.97;;
1935;SDS011;969;49.892;10.896;2023-08-12T06:00:49;5.20;;;4.70;;
1935;SDS011;969;49.892;10.896;2023-08-12T06:03:15;4.53;;;4.10;;
1935;SDS011;969;49.892;10.896;2023-08-12T06:05:41;4.33;;;3.93;;
1935;SDS011;969;49.892;10.896;2023-08-12T06:08:09;5.33;;;4.47;;
1935;SDS011;969;49.892;10.896;2023-08-12T06:10:35;4.80;;;4.33;;
1935;SDS011;969;49.892;10.896;2023-08-12T06:13:00;4.90;;;3.90;;
1935;SDS011;969;49.892;10.896;2023-08-12T06:15:26;6.50;;;4.20;;
1935;SDS011;969;49.892;10.896;2023-08-12T06:17:52;5.10;;;4.70;;
1935;SDS011;969;49.892;10.896;2023-08-12T06:20:17;5.63;;;4.50;;
1935;SDS011;969;49.892;10.896;2023-08-12T06:22:43;4.00;;;3.70;;
1935;SDS011;969;49.892;10.896;2023-08-12T06:25:08;4.40;;;4.10;;
1935;SDS011;969;49.892;10.896;2023-08-12T06:27:34;5.30;;;4.80;;
1935;SDS011;969;49.892;10.896;2023-08-12T06:29:59;4.90;;;3.97;;
1935;SDS011;969;49.892;10.896;2023-08-12T06:32:25;4.40;;;4.00;;
1935;SDS011;969;49.892;10.896;2023-08-12T06:34:50;4.90;;;4.10;;
1935;SDS011;969;49.892;10.896;2023-08-12T06:37:16;4.50;;;4.10;;
1935;SDS011;969;49.892;10.896;2023-08-12T06:39:42;4.07;;;3.70;;
1935;SDS011;969;49.892;10.896;2023-08-12T06:42:10;4.83;;;4.37;;
1935;SDS011;969;49.892;10.896;2023-08-12T06:44:36;3.97;;;3.60;;
1935;SDS011;969;49.892;10.896;2023-08-12T06:47:02;3.60;;;3.27;;
1935;SDS011;969;49.892;10.896;2023-08-12T06:49:27;4.47;;;3.87;;
1935;SDS011;969;49.892;10.896;2023-08-12T06:51:54;4.00;;;3.60;;
1935;SDS011;969;49.892;10.896;2023-08-12T06:54:19;4.23;;;3.80;;
1935;SDS011;969;49.892;10.896;2023-08-12T06:56:47;4.00;;;3.70;;
1935;SDS011;969;49.892;10.896;2023-08-12T06:59:13;4.13;;;3.73;;
1935;SDS011;969;49.892;10.896;2023-08-12T07:01:39;4.40;;;3.80;;
1935;SDS011;969;49.892;10.896;2023-08-12T07:04:05;4.17;;;3.77;;
1935;SDS011;969;49.892;10.896;2023-08-12T07:06:30;4.20;;;3.80;;
1935;SDS011;969;49.892;10.896;2023-08-12T07:08:56;4.20;;;3.80;;
1935;SDS011;969;49.892;10.896;2023-08-12T07:11:21;3.77;;;3.40;;
1935;SDS011;969;49.892;10.896;2023-08-12T07:13:47;4.13;;;3.83;;
1935;SDS011;969;49.892;10.896;2023-08-12T07:16:13;3.80;;;3.50;;
1935;SDS011;969;49.892;10.896;2023-08-12T07:18:38;4.40;;;4.00;;
1935;SDS011;969;49.892;10.896;2023-08-12T07:21:04;4.10;;;3.70;;
1935;SDS011;969;49.892;10.896;2023-08-12T07:23:30;3.80;;;3.50;;
1935;SDS011;969;49.892;10.896;2023-08-12T07:25:56;3.93;;;3.53;;
1935;SDS011;969;49.892;10.896;2023-08-12T07:28:21;4.10;;;3.70;;
1935;SDS011;969;49.892;10.896;2023-08-12T07:30:50;4.20;;;3.80;;
1935;SDS011;969;49.892;10.896;2023-08-12T07:33:17;4.00;;;3.70;;
1935;SDS011;969;49.892;10.896;2023-08-12T07:35:42;4.03;;;3.73;;
1935;SDS011;969;49.892;10.896;2023-08-12T07:38:08;4.03;;;3.43;;
1935;SDS011;969;49.892;10.896;2023-08-12T07:40:34;4.80;;;3.77;;
1935;SDS011;969;49.892;10.896;2023-08-12T07:42:59;3.83;;;3.43;;
1935;SDS011;969;49.892;10.896;2023-08-12T07:45:25;3.30;;;3.10;;
1935;SDS011;969;49.892;10.896;2023-08-12T07:47:50;3.90;;;3.30;;
1935;SDS011;969;49.892;10.896;2023-08-12T07:50:16;4.80;;;3.43;;
1935;SDS011;969;49.892;10.896;2023-08-12T07:52:42;4.20;;;3.80;;
1935;SDS011;969;49.892;10.896;2023-08-12T07:55:08;3.90;;;3.23;;
1935;SDS011;969;49.892;10.896;2023-08-12T07:57:34;4.30;;;3.90;;
1935;SDS011;969;49.892;10.896;2023-08-12T07:59:59;4.00;;;3.60;;
1935;SDS011;969;49.892;10.896;2023-08-12T08:02:25;4.00;;;3.30;;
1935;SDS011;969;49.892;10.896;2023-08-12T08:04:50;3.67;;;3.37;;
1935;SDS011;969;49.892;10.896;2023-08-12T08:07:16;3.80;;;3.33;;
1935;SDS011;969;49.892;10.896;2023-08-12T08:09:43;3.27;;;3.07;;
1935;SDS011;969;49.892;10.896;2023-08-12T08:12:09;3.53;;;3.23;;
1935;SDS011;969;49.892;10.896;2023-08-12T08:14:35;5.30;;;3.40;;
1935;SDS011;969;49.892;10.896;2023-08-12T08:17:01;7.73;;;3.43;;
1935;SDS011;969;49.892;10.896;2023-08-12T08:19:28;7.43;;;3.50;;
1935;SDS011;969;49.892;10.896;2023-08-12T08:21:54;4.13;;;3.50;;
1935;SDS011;969;49.892;10.896;2023-08-12T08:24:19;4.70;;;3.50;;
1935;SDS011;969;49.892;10.896;2023-08-12T08:26:45;6.20;;;3.30;;
1935;SDS011;969;49.892;10.896;2023-08-12T08:29:11;6.20;;;3.60;;
1935;SDS011;969;49.892;10.896;2023-08-12T08:31:38;4.40;;;3.30;;
1935;SDS011;969;49.892;10.896;2023-08-12T08:34:04;4.10;;;3.70;;
1935;SDS011;969;49.892;10.896;2023-08-12T08:36:29;3.40;;;3.10;;
1935;SDS011;969;49.892;10.896;2023-08-12T08:38:55;4.50;;;3.40;;
1935;SDS011;969;49.892;10.896;2023-08-12T08:41:20;5.20;;;3.60;;
1935;SDS011;969;49.892;10.896;2023-08-12T08:43:47;4.63;;;3.70;;
1935;SDS011;969;49.892;10.896;2023-08-12T08:46:14;4.03;;;3.73;;
1935;SDS011;969;49.892;10.896;2023-08-12T08:48:41;5.53;;;3.67;;
1935;SDS011;969;49.892;10.896;2023-08-12T08:51:08;3.50;;;3.20;;
1935;SDS011;969;49.892;10.896;2023-08-12T08:53:38;5.00;;;3.60;;
1935;SDS011;969;49.892;10.896;2023-08-12T08:56:07;4.17;;;3.40;;
1935;SDS011;969;49.892;10.896;2023-08-12T08:58:36;4.30;;;3.70;;
1935;SDS011;969;49.892;10.896;2023-08-12T09:01:07;3.97;;;3.60;;
1935;SDS011;969;49.892;10.896;2023-08-12T09:03:35;3.67;;;3.37;;
1935;SDS011;969;49.892;10.896;2023-08-12T09:06:02;4.23;;;3.57;;
1935;SDS011;969;49.892;10.896;2023-08-12T09:08:28;3.70;;;3.30;;
1935;SDS011;969;49.892;10.896;2023-08-12T09:10:57;4.07;;;3.43;;
1935;SDS011;969;49.892;10.896;2023-08-12T09:13:24;3.30;;;3.00;;
1935;SDS011;969;49.892;10.896;2023-08-12T09:15:50;4.20;;;3.20;;
1935;SDS011;969;49.892;10.896;2023-08-12T09:18:16;3.30;;;3.00;;
1935;SDS011;969;49.892;10.896;2023-08-12T09:20:42;4.13;;;3.37;;
1935;SDS011;969;49.892;10.896;2023-08-12T09:23:08;3.60;;;3.30;;
1935;SDS011;969;49.892;10.896;2023-08-12T09:25:35;3.50;;;3.20;;
1935;SDS011;969;49.892;10.896;2023-08-12T09:28:09;4.27;;;3.30;;
1935;SDS011;969;49.892;10.896;2023-08-12T09:30:35;3.40;;;3.07;;
1935;SDS011;969;49.892;10.896;2023-08-12T09:33:03;6.23;;;3.20;;
1935;SDS011;969;49.892;10.896;2023-08-12T09:35:41;4.77;;;3.57;;
1935;SDS011;969;49.892;10.896;2023-08-12T09:38:10;4.47;;;3.60;;
1935;SDS011;969;49.892;10.896;2023-08-12T09:40:37;3.40;;;2.80;;
1935;SDS011;969;49.892;10.896;2023-08-12T09:43:03;3.87;;;3.50;;
1935;SDS011;969;49.892;10.896;2023-08-12T09:45:30;3.37;;;3.17;;
1935;SDS011;969;49.892;10.896;2023-08-12T09:47:56;3.23;;;2.93;;
1935;SDS011;969;49.892;10.896;2023-08-12T09:50:22;3.80;;;3.43;;
1935;SDS011;969;49.892;10.896;2023-08-12T09:52:50;3.10;;;2.70;;
1935;SDS011;969;49.892;10.896;2023-08-12T09:55:17;3.40;;;3.10;;
1935;SDS011;969;49.892;10.896;2023-08-12T09:57:43;3.53;;;3.23;;
1935;SDS011;969;49.892;10.896;2023-08-12T10:00:12;3.27;;;3.00;;
1935;SDS011;969;49.892;10.896;2023-08-12T10:02:45;4.43;;;3.13;;
1935;SDS011;969;49.892;10.896;2023-08-12T10:05:12;3.33;;;3.00;;
1935;SDS011;969;49.892;10.896;2023-08-12T10:08:06;3.33;;;3.03;;
1935;SDS011;969;49.892;10.896;2023-08-12T10:10:32;3.30;;;3.00;;
1935;SDS011;969;49.892;10.896;2023-08-12T10:13:00;3.60;;;3.30;;
1935;SDS011;969;49.892;10.896;2023-08-12T10:15:26;3.50;;;3.13;;
1935;SDS011;969;49.892;10.896;2023-08-12T10:17:52;3.47;;;3.17;;
1935;SDS011;969;49.892;10.896;2023-08-12T10:20:21;3.67;;;3.30;;
1935;SDS011;969;49.892;10.896;2023-08-12T10:22:48;3.37;;;3.07;;
1935;SDS011;969;49.892;10.896;2023-08-12T10:25:15;3.67;;;3.33;;
1935;SDS011;969;49.892;10.896;2023-08-12T10:27:46;5.30;;;3.10;;
1935;SDS011;969;49.892;10.896;2023-08-12T10:30:12;4.63;;;3.40;;
1935;SDS011;969;49.892;10.896;2023-08-12T10:32:38;4.40;;;3.90;;
1935;SDS011;969;49.892;10.896;2023-08-12T10:35:04;7.20;;;4.20;;
1935;SDS011;969;49.892;10.896;2023-08-12T10:37:31;5.13;;;3.70;;
1935;SDS011;969;49.892;10.896;2023-08-12T10:39:58;5.83;;;4.10;;
1935;SDS011;969;49.892;10.896;2023-08-12T10:42:43;4.87;;;3.83;;
1935;SDS011;969;49.892;10.896;2023-08-12T10:45:10;5.00;;;4.53;;
1935;SDS011;969;49.892;10.896;2023-08-12T10:50:20;4.87;;;4.40;;
1935;SDS011;969;49.892;10.896;2023-08-12T10:52:47;6.10;;;3.37;;
1935;SDS011;969;49.892;10.896;2023-08-12T10:57:44;4.30;;;3.47;;
1935;SDS011;969;49.892;10.896;2023-08-12T11:00:16;3.90;;;3.50;;
1935;SDS011;969;49.892;10.896;2023-08-12T11:02:48;4.33;;;3.93;;
1935;SDS011;969;49.892;10.896;2023-08-12T11:05:17;4.00;;;3.37;;
1935;SDS011;969;49.892;10.896;2023-08-12T11:07:48;4.10;;;3.77;;
1935;SDS011;969;49.892;10.896;2023-08-12T11:10:24;4.10;;;3.73;;
1935;SDS011;969;49.892;10.896;2023-08-12T11:15:17;4.27;;;3.87;;
1935;SDS011;969;49.892;10.896;2023-08-12T11:17:44;5.83;;;4.10;;
1935;SDS011;969;49.892;10.896;2023-08-12T11:20:11;4.43;;;4.03;;
1935;SDS011;969;49.892;10.896;2023-08-12T11:22:41;4.43;;;4.03;;
1935;SDS011;969;49.892;10.896;2023-08-12T11:25:09;4.60;;;4.20;;
1935;SDS011;969;49.892;10.896;2023-08-12T11:27:37;4.87;;;4.10;;
1935;SDS011;969;49.892;10.896;2023-08-12T11:30:11;4.67;;;3.87;;
1935;SDS011;969;49.892;10.896;2023-08-12T11:32:41;5.70;;;4.33;;
1935;SDS011;969;49.892;10.896;2023-08-12T11:35:08;4.50;;;4.10;;
1935;SDS011;969;49.892;10.896;2023-08-12T11:37:36;5.83;;;4.43;;
1935;SDS011;969;49.892;10.896;2023-08-12T11:40:03;4.27;;;3.87;;
1935;SDS011;969;49.892;10.896;2023-08-12T11:42:30;6.67;;;3.80;;
1935;SDS011;969;49.892;10.896;2023-08-12T11:44:56;5.20;;;4.40;;
1935;SDS011;969;49.892;10.896;2023-08-12T11:47:21;4.20;;;3.90;;
1935;SDS011;969;49.892;10.896;2023-08-12T11:49:47;4.63;;;3.80;;
1935;SDS011;969;49.892;10.896;2023-08-12T11:52:13;3.93;;;3.63;;
1935;SDS011;969;49.892;10.896;2023-08-12T11:54:39;4.33;;;3.93;;
1935;SDS011;969;49.892;10.896;2023-08-12T11:57:05;6.07;;;4.60;;
1935;SDS011;969;49.892;10.896;2023-08-12T11:59:31;4.40;;;4.00;;
1935;SDS011;969;49.892;10.896;2023-08-12T12:01:57;4.20;;;3.90;;
1935;SDS011;969;49.892;10.896;2023-08-12T12:04:22;4.40;;;3.80;;
1935;SDS011;969;49.892;10.896;2023-08-12T12:06:49;4.10;;;3.70;;
1935;SDS011;969;49.892;10.896;2023-08-12T12:09:14;5.00;;;4.10;;
1935;SDS011;969;49.892;10.896;2023-08-12T12:11:41;3.90;;;3.60;;
1935;SDS011;969;49.892;10.896;2023-08-12T12:14:07;3.77;;;3.47;;
1935;SDS011;969;49.892;10.896;2023-08-12T12:16:41;5.50;;;3.80;;
1935;SDS011;969;49.892;10.896;2023-08-12T12:19:13;4.07;;;3.77;;
1935;SDS011;969;49.892;10.896;2023-08-12T12:21:45;4.17;;;3.77;;
1935;SDS011;969;49.892;10.896;2023-08-12T12:24:12;4.20;;;3.80;;
1935;SDS011;969;49.892;10.896;2023-08-12T12:26:38;4.70;;;4.10;;
1935;SDS011;969;49.892;10.896;2023-08-12T12:29:04;4.13;;;3.83;;
1935;SDS011;969;49.892;10.896;2023-08-12T12:31:34;5.40;;;3.57;;
1935;SDS011;969;49.892;10.896;2023-08-12T12:34:04;3.97;;;3.67;;
1935;SDS011;969;49.892;10.896;2023-08-12T12:36:30;4.33;;;4.03;;
1935;SDS011;969;49.892;10.896;2023-08-12T12:38:57;4.70;;;3.87;;
1935;SDS011;969;49.892;10.896;2023-08-12T12:41:22;4.90;;;4.10;;
1935;SDS011;969;49.892;10.896;2023-08-12T12:43:48;4.23;;;3.83;;
1935;SDS011;969;49.892;10.896;2023-08-12T12:46:14;5.17;;;4.60;;
1935;SDS011;969;49.892;10.896;2023-08-12T12:48:40;4.10;;;3.80;;
1935;SDS011;969;49.892;10.896;2023-08-12T12:51:06;3.70;;;3.40;;
1935;SDS011;969;49.892;10.896;2023-08-12T12:53:32;4.03;;;3.70;;
1935;SDS011;969;49.892;10.896;2023-08-12T12:55:57;3.73;;;3.30;;
1935;SDS011;969;49.892;10.896;2023-08-12T12:58:28;4.80;;;4.30;;
1935;SDS011;969;49.892;10.896;2023-08-12T13:01:03;4.30;;;3.80;;
1935;SDS011;969;49.892;10.896;2023-08-12T13:03:30;4.13;;;3.80;;
1935;SDS011;969;49.892;10.896;2023-08-12T13:05:56;4.20;;;3.80;;
1935;SDS011;969;49.892;10.896;2023-08-12T13:08:22;4.20;;;3.80;;
1935;SDS011;969;49.892;10.896;2023-08-12T13:10:48;3.93;;;3.63;;
1935;SDS011;969;49.892;10.896;2023-08-12T13:13:14;5.60;;;4.10;;
1935;SDS011;969;49.892;10.896;2023-08-12T13:15:43;3.73;;;3.43;;
1935;SDS011;969;49.892;10.896;2023-08-12T13:18:10;4.30;;;3.93;;
1935;SDS011;969;49.892;10.896;2023-08-12T13:20:36;4.50;;;4.10;;
1935;SDS011;969;49.892;10.896;2023-08-12T13:23:02;3.80;;;3.50;;
1935;SDS011;969;49.892;10.896;2023-08-12T13:25:29;4.40;;;4.00;;
1935;SDS011;969;49.892;10.896;2023-08-12T13:27:56;3.97;;;3.67;;
1935;SDS011;969;49.892;10.896;2023-08-12T13:30:22;4.60;;;4.20;;
1935;SDS011;969;49.892;10.896;2023-08-12T13:32:48;4.70;;;4.30;;
1935;SDS011;969;49.892;10.896;2023-08-12T13:35:14;4.27;;;3.93;;
1935;SDS011;969;49.892;10.896;2023-08-12T13:37:39;4.30;;;3.57;;
1935;SDS011;969;49.892;10.896;2023-08-12T13:40:05;4.30;;;3.90;;
1935;SDS011;969;49.892;10.896;2023-08-12T13:42:31;4.23;;;3.93;;
1935;SDS011;969;49.892;10.896;2023-08-12T13:44:57;4.40;;;3.90;;
1935;SDS011;969;49.892;10.896;2023-08-12T13:47:22;3.57;;;3.27;;
1935;SDS011;969;49.892;10.896;2023-08-12T13:49:48;3.67;;;3.37;;
1935;SDS011;969;49.892;10.896;2023-08-12T13:52:14;4.70;;;3.93;;
1935;SDS011;969;49.892;10.896;2023-08-12T13:54:40;4.17;;;3.77;;
1935;SDS011;969;49.892;10.896;2023-08-12T13:57:06;4.87;;;4.03;;
1935;SDS011;969;49.892;10.896;2023-08-12T13:59:31;4.00;;;3.70;;
1935;SDS011;969;49.892;10.896;2023-08-12T14:01:57;5.60;;;4.70;;
1935;SDS011;969;49.892;10.896;2023-08-12T14:04:22;5.53;;;3.70;;
1935;SDS011;969;49.892;10.896;2023-08-12T14:06:48;4.17;;;3.80;;
1935;SDS011;969;49.892;10.896;2023-08-12T14:09:14;6.80;;;3.60;;
1935;SDS011;969;49.892;10.896;2023-08-12T14:11:42;4.00;;;3.70;;
1935;SDS011;969;49.892;10.896;2023-08-12T14:14:07;4.27;;;3.50;;
1935;SDS011;969;49.892;10.896;2023-08-12T14:16:33;6.97;;;4.13;;
1935;SDS011;969;49.892;10.896;2023-08-12T14:18:59;3.97;;;3.67;;
1935;SDS011;969;49.892;10.896;2023-08-12T14:21:25;4.57;;;4.10;;
1935;SDS011;969;49.892;10.896;2023-08-12T14:23:50;3.53;;;3.20;;
1935;SDS011;969;49.892;10.896;2023-08-12T14:26:16;4.63;;;4.00;;
1935;SDS011;969;49.892;10.896;2023-08-12T14:28:42;4.33;;;3.93;;
1935;SDS011;969;49.892;10.896;2023-08-12T14:31:07;3.80;;;3.47;;
1935;SDS011;969;49.892;10.896;2023-08-12T14:33:33;3.80;;;3.40;;
1935;SDS011;969;49.892;10.896;2023-08-12T14:35:58;3.80;;;3.50;;
1935;SDS011;969;49.892;10.896;2023-08-12T14:38:24;3.87;;;3.47;;
1935;SDS011;969;49.892;10.896;2023-08-12T14:40:50;4.13;;;3.50;;
1935;SDS011;969;49.892;10.896;2023-08-12T14:43:15;4.00;;;3.70;;
1935;SDS011;969;49.892;10.896;2023-08-12T14:45:42;4.03;;;3.63;;
1935;SDS011;969;49.892;10.896;2023-08-12T14:48:10;3.77;;;3.47;;
1935;SDS011;969;49.892;10.896;2023-08-12T14:50:37;3.67;;;3.37;;
1935;SDS011;969;49.892;10.896;2023-08-12T14:53:03;4.70;;;3.43;;
1935;SDS011;969;49.892;10.896;2023-08-12T14:55:29;3.90;;;3.50;;
1935;SDS011;969;49.892;10.896;2023-08-12T14:57:54;4.50;;;3.60;;
1935;SDS011;969;49.892;10.896;2023-08-12T15:00:20;3.93;;;3.53;;
1935;SDS011;969;49.892;10.896;2023-08-12T15:02:46;3.03;;;2.80;;
1935;SDS011;969;49.892;10.896;2023-08-12T15:05:11;3.67;;;3.10;;
1935;SDS011;969;49.892;10.896;2023-08-12T15:07:37;3.40;;;3.10;;
1935;SDS011;969;49.892;10.896;2023-08-12T15:10:03;5.43;;;3.50;;
1935;SDS011;969;49.892;10.896;2023-08-12T15:12:29;3.50;;;3.20;;
1935;SDS011;969;49.892;10.896;2023-08-12T15:14:55;4.00;;;3.60;;
1935;SDS011;969;49.892;10.896;2023-08-12T15:17:21;13.70;;;4.70;;
1935;SDS011;969;49.892;10.896;2023-08-12T15:19:46;5.23;;;4.00;;
1935;SDS011;969;49.892;10.896;2023-08-12T15:22:12;4.50;;;4.10;;